createdAt,value
2017-03-18T00:00:25.086Z,999.89
2017-03-18T00:01:05.691Z,999.89
2017-03-18T00:01:46.318Z,999.85
2017-03-18T00:02:26.893Z,999.89
2017-03-18T00:03:07.499Z,999.94
2017-03-18T00:03:48.074Z,999.94
2017-03-18T00:04:28.683Z,999.9
2017-03-18T00:05:09.256Z,999.92
2017-03-18T00:05:49.832Z,999.93
2017-03-18T00:06:30.417Z,999.89
2017-03-18T00:07:11.011Z,999.83
2017-03-18T00:07:51.602Z,999.76
2017-03-18T00:08:32.205Z,999.79
2017-03-18T00:09:12.805Z,999.8
2017-03-18T00:09:53.418Z,999.79
2017-03-18T00:10:33.993Z,999.83
2017-03-18T00:11:14.555Z,999.85
2017-03-18T00:11:55.186Z,999.84
2017-03-18T00:12:35.763Z,999.78
2017-03-18T00:13:16.371Z,999.82
2017-03-18T00:13:56.926Z,999.84
2017-03-18T00:14:37.516Z,999.84
2017-03-18T00:15:18.129Z,999.86
2017-03-18T00:15:58.720Z,999.85
2017-03-18T00:16:39.294Z,999.87
2017-03-18T00:17:19.896Z,999.77
2017-03-18T00:18:00.467Z,999.81
2017-03-18T00:18:41.086Z,999.8
2017-03-18T00:19:21.710Z,999.78
2017-03-18T00:20:02.296Z,999.77
2017-03-18T00:20:42.891Z,999.77
2017-03-18T00:21:23.468Z,999.75
2017-03-18T00:22:04.033Z,999.75
2017-03-18T00:22:44.597Z,999.76
2017-03-18T00:23:25.171Z,999.74
2017-03-18T00:24:05.773Z,999.69
2017-03-18T00:24:46.382Z,999.69
2017-03-18T00:25:26.980Z,999.71
2017-03-18T00:26:07.567Z,999.72
2017-03-18T00:26:48.166Z,999.67
2017-03-18T00:27:28.749Z,999.71
2017-03-18T00:28:09.364Z,999.71
2017-03-18T00:28:49.945Z,999.67
2017-03-18T00:29:30.544Z,999.71
2017-03-18T00:30:11.128Z,999.68
2017-03-18T00:30:51.706Z,999.65
2017-03-18T00:31:32.291Z,999.66
2017-03-18T00:32:12.870Z,999.67
2017-03-18T00:32:53.466Z,999.64
2017-03-18T00:33:34.043Z,999.6
2017-03-18T00:34:14.715Z,999.55
2017-03-18T00:34:55.246Z,999.52
2017-03-18T00:35:35.830Z,999.49
2017-03-18T00:36:16.443Z,999.48
2017-03-18T00:36:57.021Z,999.45
2017-03-18T00:37:37.616Z,999.47
2017-03-18T00:38:18.249Z,999.44
2017-03-18T00:38:58.822Z,999.47
2017-03-18T00:39:39.379Z,999.44
2017-03-18T00:40:19.956Z,999.41
2017-03-18T00:41:00.577Z,999.41
2017-03-18T00:41:41.171Z,999.42
2017-03-18T00:42:21.758Z,999.37
2017-03-18T00:43:02.366Z,999.35
2017-03-18T00:43:42.977Z,999.4
2017-03-18T00:44:23.565Z,999.37
2017-03-18T00:45:04.169Z,999.33
2017-03-18T00:45:44.737Z,999.34
2017-03-18T00:46:25.327Z,999.33
2017-03-18T00:47:05.915Z,999.32
2017-03-18T00:47:46.493Z,999.29
2017-03-18T00:48:27.109Z,999.32
2017-03-18T00:49:07.666Z,999.34
2017-03-18T00:49:48.278Z,999.32
2017-03-18T00:50:28.938Z,999.3
2017-03-18T00:51:09.520Z,999.34
2017-03-18T00:51:50.098Z,999.29
2017-03-18T00:52:30.684Z,999.29
2017-03-18T00:53:11.267Z,999.32
2017-03-18T00:53:51.842Z,999.26
2017-03-18T00:54:32.420Z,999.25
2017-03-18T00:55:12.990Z,999.25
2017-03-18T00:55:53.612Z,999.19
2017-03-18T00:56:34.176Z,999.18
2017-03-18T00:57:14.737Z,999.19
2017-03-18T00:57:55.302Z,999.18
2017-03-18T00:58:35.890Z,999.17
2017-03-18T00:59:16.493Z,999.15
2017-03-18T00:59:57.101Z,999.13
2017-03-18T01:00:37.714Z,999.09
2017-03-18T01:01:18.325Z,999.11
2017-03-18T01:01:58.889Z,999.09
2017-03-18T01:02:39.462Z,999.08
2017-03-18T01:03:20.063Z,999.07
2017-03-18T01:04:00.660Z,999.04
2017-03-18T01:04:41.330Z,999
2017-03-18T01:05:21.903Z,999.01
2017-03-18T01:06:02.577Z,999.06
2017-03-18T01:06:43.170Z,998.99
2017-03-18T01:07:23.726Z,999.01
2017-03-18T01:08:04.319Z,998.99
2017-03-18T01:08:44.901Z,998.95
2017-03-18T01:09:25.526Z,998.91
2017-03-18T01:10:06.123Z,998.92
2017-03-18T01:10:46.713Z,998.93
2017-03-18T01:11:27.316Z,998.92
2017-03-18T01:12:07.894Z,998.89
2017-03-18T01:12:48.515Z,998.91
2017-03-18T01:13:29.100Z,998.9
2017-03-18T01:14:09.691Z,998.87
2017-03-18T01:14:50.290Z,998.85
2017-03-18T01:15:30.855Z,998.91
2017-03-18T01:16:11.436Z,998.81
2017-03-18T01:16:52.042Z,998.76
2017-03-18T01:17:32.639Z,998.78
2017-03-18T01:18:13.226Z,998.69
2017-03-18T01:18:53.822Z,998.81
2017-03-18T01:19:34.461Z,998.77
2017-03-18T01:20:15.061Z,998.74
2017-03-18T01:20:55.687Z,998.76
2017-03-18T01:21:36.269Z,998.61
2017-03-18T01:22:16.892Z,998.62
2017-03-18T01:22:57.444Z,998.69
2017-03-18T01:23:38.117Z,998.59
2017-03-18T01:24:18.770Z,998.67
2017-03-18T01:24:59.343Z,998.56
2017-03-18T01:25:39.915Z,998.61
2017-03-18T01:26:20.499Z,998.55
2017-03-18T01:27:01.200Z,998.52
2017-03-18T01:27:42.243Z,998.49
2017-03-18T01:28:22.911Z,998.53
2017-03-18T01:29:03.535Z,998.56
2017-03-18T01:29:44.105Z,998.59
2017-03-18T01:30:24.672Z,998.49
2017-03-18T01:31:05.273Z,998.45
2017-03-18T01:31:45.854Z,998.55
2017-03-18T01:32:26.485Z,998.47
2017-03-18T01:33:07.108Z,998.52
2017-03-18T01:33:47.755Z,998.39
2017-03-18T01:34:28.388Z,998.49
2017-03-18T01:35:09.000Z,998.41
2017-03-18T01:35:49.639Z,998.49
2017-03-18T01:36:30.213Z,998.39
2017-03-18T01:37:10.791Z,998.4
2017-03-18T01:37:51.394Z,998.42
2017-03-18T01:38:31.976Z,998.41
2017-03-18T01:39:12.564Z,998.33
2017-03-18T01:39:53.140Z,998.39
2017-03-18T01:40:33.754Z,998.31
2017-03-18T01:41:14.362Z,998.31
2017-03-18T01:41:54.957Z,998.33
2017-03-18T01:42:35.554Z,998.32
2017-03-18T01:43:16.127Z,998.38
2017-03-18T01:43:56.718Z,998.31
2017-03-18T01:44:37.303Z,998.27
2017-03-18T01:45:17.886Z,998.32
2017-03-18T01:45:58.475Z,998.33
2017-03-18T01:46:39.034Z,998.18
2017-03-18T01:47:19.627Z,998.2
2017-03-18T01:48:00.232Z,998.23
2017-03-18T01:48:40.841Z,998.21
2017-03-18T01:49:21.437Z,998.16
2017-03-18T01:50:02.035Z,998.23
2017-03-18T01:50:42.653Z,998.16
2017-03-18T01:51:23.254Z,998.17
2017-03-18T01:52:03.840Z,998.16
2017-03-18T01:52:44.425Z,998.14
2017-03-18T01:53:25.063Z,998.08
2017-03-18T01:54:05.662Z,998.06
2017-03-18T01:54:46.246Z,998.13
2017-03-18T01:55:26.978Z,998.09
2017-03-18T01:56:07.687Z,998.07
2017-03-18T01:56:48.272Z,998.09
2017-03-18T01:57:28.854Z,998.11
2017-03-18T01:58:09.443Z,998.12
2017-03-18T01:58:50.016Z,998.03
2017-03-18T01:59:30.637Z,997.99
2017-03-18T02:00:11.198Z,998.06
2017-03-18T02:00:51.779Z,998.09
2017-03-18T02:01:32.347Z,998.09
2017-03-18T02:02:12.943Z,998.03
2017-03-18T02:02:53.511Z,998.07
2017-03-18T02:03:34.144Z,997.99
2017-03-18T02:04:14.736Z,997.97
2017-03-18T02:04:55.341Z,997.96
2017-03-18T02:05:35.968Z,997.95
2017-03-18T02:06:16.555Z,997.97
2017-03-18T02:06:57.145Z,997.96
2017-03-18T02:07:37.754Z,997.95
2017-03-18T02:08:18.330Z,997.93
2017-03-18T02:08:58.957Z,997.89
2017-03-18T02:09:39.518Z,997.9
2017-03-18T02:10:20.103Z,997.88
2017-03-18T02:11:00.698Z,997.85
2017-03-18T02:11:41.308Z,997.85
2017-03-18T02:12:21.882Z,997.88
2017-03-18T02:13:02.555Z,997.89
2017-03-18T02:13:43.161Z,997.82
2017-03-18T02:14:23.739Z,997.87
2017-03-18T02:15:04.321Z,997.77
2017-03-18T02:15:44.921Z,997.83
2017-03-18T02:16:25.483Z,997.79
2017-03-18T02:17:06.079Z,997.82
2017-03-18T02:17:46.692Z,997.81
2017-03-18T02:18:27.233Z,997.76
2017-03-18T02:19:07.806Z,997.74
2017-03-18T02:19:48.388Z,997.76
2017-03-18T02:20:29.005Z,997.75
2017-03-18T02:21:09.580Z,997.77
2017-03-18T02:21:50.174Z,997.7
2017-03-18T02:22:30.802Z,997.74
2017-03-18T02:23:11.401Z,997.72
2017-03-18T02:23:51.982Z,997.72
2017-03-18T02:24:32.586Z,997.67
2017-03-18T02:25:13.200Z,997.68
2017-03-18T02:25:53.804Z,997.62
2017-03-18T02:26:34.392Z,997.62
2017-03-18T02:27:14.994Z,997.65
2017-03-18T02:27:55.573Z,997.63
2017-03-18T02:28:36.158Z,997.63
2017-03-18T02:29:16.769Z,997.62
2017-03-18T02:29:57.365Z,997.61
2017-03-18T02:30:37.947Z,997.55
2017-03-18T02:31:18.540Z,997.54
2017-03-18T02:31:59.188Z,997.52
2017-03-18T02:32:39.771Z,997.5
2017-03-18T02:33:20.402Z,997.5
2017-03-18T02:34:00.959Z,997.49
2017-03-18T02:34:41.549Z,997.47
2017-03-18T02:35:22.133Z,997.5
2017-03-18T02:36:02.794Z,997.46
2017-03-18T02:36:43.318Z,997.5
2017-03-18T02:37:24.116Z,997.46
2017-03-18T02:38:04.725Z,997.43
2017-03-18T02:38:45.296Z,997.42
2017-03-18T02:39:25.880Z,997.39
2017-03-18T02:40:06.509Z,997.31
2017-03-18T02:40:47.068Z,997.34
2017-03-18T02:41:27.692Z,997.31
2017-03-18T02:42:08.273Z,997.29
2017-03-18T02:42:48.841Z,997.28
2017-03-18T02:43:29.455Z,997.23
2017-03-18T02:44:10.031Z,997.25
2017-03-18T02:44:50.631Z,997.22
2017-03-18T02:45:31.415Z,997.19
2017-03-18T02:46:12.049Z,997.13
2017-03-18T02:46:52.648Z,997.14
2017-03-18T02:47:33.211Z,997.06
2017-03-18T02:48:13.793Z,997.11
2017-03-18T02:48:54.409Z,997.05
2017-03-18T02:49:34.991Z,997
2017-03-18T02:50:15.555Z,997.02
2017-03-18T02:50:56.161Z,996.95
2017-03-18T02:51:36.746Z,996.94
2017-03-18T02:52:17.374Z,996.9
2017-03-18T02:52:57.927Z,996.92
2017-03-18T02:53:38.533Z,996.85
2017-03-18T02:54:19.143Z,996.83
2017-03-18T02:54:59.705Z,996.86
2017-03-18T02:55:40.262Z,996.77
2017-03-18T02:56:20.845Z,996.79
2017-03-18T02:57:01.421Z,996.83
2017-03-18T02:57:42.050Z,996.81
2017-03-18T02:58:22.635Z,996.78
2017-03-18T02:59:03.236Z,996.81
2017-03-18T02:59:43.825Z,996.78
2017-03-18T03:00:24.416Z,996.74
2017-03-18T03:01:04.995Z,996.73
2017-03-18T03:01:45.580Z,996.69
2017-03-18T03:02:26.173Z,996.65
2017-03-18T03:03:06.740Z,996.63
2017-03-18T03:03:47.316Z,996.65
2017-03-18T03:04:27.906Z,996.65
2017-03-18T03:05:08.486Z,996.59
2017-03-18T03:05:49.102Z,996.61
2017-03-18T03:06:29.749Z,996.56
2017-03-18T03:07:10.311Z,996.57
2017-03-18T03:07:50.893Z,996.55
2017-03-18T03:08:31.502Z,996.56
2017-03-18T03:09:12.092Z,996.46
2017-03-18T03:09:52.692Z,996.49
2017-03-18T03:10:33.261Z,996.48
2017-03-18T03:11:13.840Z,996.42
2017-03-18T03:11:54.454Z,996.45
2017-03-18T03:12:35.043Z,996.43
2017-03-18T03:13:15.647Z,996.4
2017-03-18T03:13:56.300Z,996.37
2017-03-18T03:14:36.872Z,996.4
2017-03-18T03:15:17.457Z,996.37
2017-03-18T03:15:58.056Z,996.39
2017-03-18T03:16:38.685Z,996.36
2017-03-18T03:17:19.274Z,996.3
2017-03-18T03:17:59.857Z,996.33
2017-03-18T03:18:40.448Z,996.27
2017-03-18T03:19:21.059Z,996.26
2017-03-18T03:20:01.624Z,996.22
2017-03-18T03:20:42.216Z,996.21
2017-03-18T03:21:22.782Z,996.18
2017-03-18T03:22:03.347Z,996.19
2017-03-18T03:22:43.935Z,996.17
2017-03-18T03:23:24.533Z,996.15
2017-03-18T03:24:05.142Z,996.16
2017-03-18T03:24:45.729Z,996.13
2017-03-18T03:25:26.301Z,996.14
2017-03-18T03:26:06.880Z,996.12
2017-03-18T03:26:47.452Z,996.13
2017-03-18T03:27:28.035Z,996.11
2017-03-18T03:28:08.609Z,996.13
2017-03-18T03:28:49.182Z,996.06
2017-03-18T03:29:29.811Z,996.07
2017-03-18T03:30:10.390Z,996.03
2017-03-18T03:30:50.958Z,996.05
2017-03-18T03:31:31.540Z,996.05
2017-03-18T03:32:12.144Z,996.04
2017-03-18T03:32:52.750Z,996.01
2017-03-18T03:33:33.352Z,996
2017-03-18T03:34:13.950Z,996.03
2017-03-18T03:34:54.524Z,995.95
2017-03-18T03:35:35.110Z,995.97
2017-03-18T03:36:15.714Z,995.99
2017-03-18T03:36:56.298Z,995.92
2017-03-18T03:37:36.866Z,995.92
2017-03-18T03:38:17.436Z,995.94
2017-03-18T03:38:58.005Z,995.91
2017-03-18T03:39:38.607Z,995.94
2017-03-18T03:40:19.190Z,995.91
2017-03-18T03:40:59.785Z,995.87
2017-03-18T03:41:40.394Z,995.86
2017-03-18T03:42:20.980Z,995.81
2017-03-18T03:43:01.584Z,995.81
2017-03-18T03:43:42.184Z,995.77
2017-03-18T03:44:22.755Z,995.77
2017-03-18T03:45:03.328Z,995.75
2017-03-18T03:45:44.126Z,995.76
2017-03-18T03:46:24.713Z,995.78
2017-03-18T03:47:05.300Z,995.72
2017-03-18T03:47:45.887Z,995.68
2017-03-18T03:48:26.479Z,995.66
2017-03-18T03:49:07.188Z,995.64
2017-03-18T03:49:47.794Z,995.68
2017-03-18T03:50:28.642Z,995.6
2017-03-18T03:51:09.309Z,995.61
2017-03-18T03:51:50.091Z,995.6
2017-03-18T03:52:31.111Z,995.66
2017-03-18T03:53:12.094Z,995.61
2017-03-18T03:53:52.681Z,995.62
2017-03-18T03:54:33.264Z,995.59
2017-03-18T03:55:13.823Z,995.6
2017-03-18T03:55:54.391Z,995.58
2017-03-18T03:56:34.969Z,995.59
2017-03-18T03:57:15.668Z,995.6
2017-03-18T03:57:56.574Z,995.59
2017-03-18T03:58:37.536Z,995.58
2017-03-18T03:59:18.552Z,995.57
2017-03-18T03:59:59.476Z,995.53
2017-03-18T04:00:40.421Z,995.51
2017-03-18T04:01:20.994Z,995.51
2017-03-18T04:02:01.557Z,995.44
2017-03-18T04:02:42.617Z,995.5
2017-03-18T04:03:23.421Z,995.4
2017-03-18T04:04:04.134Z,995.42
2017-03-18T04:04:44.720Z,995.41
2017-03-18T04:05:25.587Z,995.4
2017-03-18T04:06:06.403Z,995.34
2017-03-18T04:06:46.977Z,995.37
2017-03-18T04:07:27.554Z,995.35
2017-03-18T04:08:08.154Z,995.37
2017-03-18T04:08:48.771Z,995.3
2017-03-18T04:09:29.351Z,995.29
2017-03-18T04:10:09.957Z,995.24
2017-03-18T04:10:50.529Z,995.26
2017-03-18T04:11:31.109Z,995.27
2017-03-18T04:12:11.711Z,995.25
2017-03-18T04:12:52.276Z,995.22
2017-03-18T04:13:32.860Z,995.22
2017-03-18T04:14:13.435Z,995.18
2017-03-18T04:14:54.016Z,995.17
2017-03-18T04:15:34.595Z,995.11
2017-03-18T04:16:15.181Z,995.11
2017-03-18T04:16:55.747Z,995.07
2017-03-18T04:17:36.316Z,995.04
2017-03-18T04:18:16.895Z,995.04
2017-03-18T04:18:57.472Z,995.03
2017-03-18T04:19:38.060Z,995.05
2017-03-18T04:20:18.654Z,995.01
2017-03-18T04:20:59.236Z,995.01
2017-03-18T04:21:39.820Z,995.02
2017-03-18T04:22:20.394Z,994.93
2017-03-18T04:23:00.966Z,994.97
2017-03-18T04:23:41.536Z,994.94
2017-03-18T04:24:22.113Z,994.91
2017-03-18T04:25:02.729Z,994.93
2017-03-18T04:25:43.358Z,994.83
2017-03-18T04:26:23.881Z,994.81
2017-03-18T04:27:04.446Z,994.78
2017-03-18T04:27:45.017Z,994.77
2017-03-18T04:28:25.589Z,994.68
2017-03-18T04:29:06.159Z,994.7
2017-03-18T04:29:46.747Z,994.61
2017-03-18T04:30:27.305Z,994.61
2017-03-18T04:31:07.868Z,994.61
2017-03-18T04:31:48.434Z,994.52
2017-03-18T04:32:29.022Z,994.54
2017-03-18T04:33:09.620Z,994.46
2017-03-18T04:33:50.177Z,994.48
2017-03-18T04:34:30.743Z,994.44
2017-03-18T04:35:11.318Z,994.49
2017-03-18T04:35:51.919Z,994.41
2017-03-18T04:36:32.497Z,994.41
2017-03-18T04:37:13.156Z,994.38
2017-03-18T04:37:53.731Z,994.39
2017-03-18T04:38:34.323Z,994.4
2017-03-18T04:39:14.964Z,994.43
2017-03-18T04:39:55.497Z,994.44
2017-03-18T04:40:36.078Z,994.39
2017-03-18T04:41:16.657Z,994.37
2017-03-18T04:41:57.246Z,994.33
2017-03-18T04:42:37.830Z,994.35
2017-03-18T04:43:18.439Z,994.36
2017-03-18T04:43:59.033Z,994.29
2017-03-18T04:44:39.677Z,994.33
2017-03-18T04:45:20.266Z,994.23
2017-03-18T04:46:00.855Z,994.3
2017-03-18T04:46:41.465Z,994.2
2017-03-18T04:47:22.093Z,994.2
2017-03-18T04:48:02.673Z,994.15
2017-03-18T04:48:43.269Z,994.13
2017-03-18T04:49:23.875Z,994.06
2017-03-18T04:50:04.502Z,994.02
2017-03-18T04:50:45.098Z,993.98
2017-03-18T04:51:25.710Z,993.94
2017-03-18T04:52:06.289Z,993.99
2017-03-18T04:52:46.880Z,994.02
2017-03-18T04:53:27.519Z,994.06
2017-03-18T04:54:08.088Z,994.08
2017-03-18T04:54:48.689Z,994.11
2017-03-18T04:55:29.232Z,994.07
2017-03-18T04:56:09.838Z,994.06
2017-03-18T04:56:50.437Z,994.07
2017-03-18T04:57:31.041Z,994.02
2017-03-18T04:58:11.650Z,994.04
2017-03-18T04:58:52.424Z,994.06
2017-03-18T04:59:33.930Z,994.01
2017-03-18T05:00:15.227Z,993.99
2017-03-18T05:00:56.139Z,993.96
2017-03-18T05:01:36.733Z,993.97
2017-03-18T05:02:17.339Z,993.95
2017-03-18T05:02:57.937Z,993.89
2017-03-18T05:03:38.507Z,993.86
2017-03-18T05:04:19.107Z,993.84
2017-03-18T05:04:59.688Z,993.9
2017-03-18T05:05:40.269Z,993.89
2017-03-18T05:06:20.851Z,993.85
2017-03-18T05:07:01.425Z,993.79
2017-03-18T05:07:42.008Z,993.76
2017-03-18T05:08:22.600Z,993.77
2017-03-18T05:09:03.199Z,993.7
2017-03-18T05:09:43.810Z,993.69
2017-03-18T05:10:24.463Z,993.63
2017-03-18T05:11:05.042Z,993.61
2017-03-18T05:11:45.619Z,993.55
2017-03-18T05:12:26.232Z,993.48
2017-03-18T05:13:06.800Z,993.46
2017-03-18T05:13:47.404Z,993.48
2017-03-18T05:14:28.032Z,993.43
2017-03-18T05:15:08.649Z,993.43
2017-03-18T05:15:49.241Z,993.47
2017-03-18T05:16:29.827Z,993.46
2017-03-18T05:17:10.407Z,993.42
2017-03-18T05:17:50.992Z,993.38
2017-03-18T05:18:31.588Z,993.38
2017-03-18T05:19:12.200Z,993.34
2017-03-18T05:19:52.789Z,993.34
2017-03-18T05:20:33.367Z,993.24
2017-03-18T05:21:14.024Z,993.18
2017-03-18T05:21:54.626Z,993.21
2017-03-18T05:22:35.228Z,993.22
2017-03-18T05:23:15.815Z,993.16
2017-03-18T05:23:56.386Z,993.12
2017-03-18T05:24:36.962Z,993.19
2017-03-18T05:25:17.589Z,993.15
2017-03-18T05:25:58.125Z,993.2
2017-03-18T05:26:38.739Z,993.2
2017-03-18T05:27:19.354Z,993.18
2017-03-18T05:27:59.936Z,993.14
2017-03-18T05:28:40.536Z,993.18
2017-03-18T05:29:21.106Z,993.1
2017-03-18T05:30:01.696Z,993.12
2017-03-18T05:30:42.248Z,993.14
2017-03-18T05:31:22.823Z,993.14
2017-03-18T05:32:03.381Z,993.1
2017-03-18T05:32:43.967Z,993.12
2017-03-18T05:33:24.558Z,993.1
2017-03-18T05:34:05.154Z,993.1
2017-03-18T05:34:45.800Z,993.06
2017-03-18T05:35:26.381Z,993.01
2017-03-18T05:36:06.979Z,993.01
2017-03-18T05:36:47.577Z,993.01
2017-03-18T05:37:28.162Z,992.98
2017-03-18T05:38:08.767Z,992.89
2017-03-18T05:38:49.378Z,992.93
2017-03-18T05:39:29.966Z,992.93
2017-03-18T05:40:10.550Z,992.91
2017-03-18T05:40:51.210Z,992.87
2017-03-18T05:41:31.851Z,992.85
2017-03-18T05:42:12.420Z,992.83
2017-03-18T05:42:53.030Z,992.84
2017-03-18T05:43:33.604Z,992.82
2017-03-18T05:44:14.210Z,992.83
2017-03-18T05:44:55.034Z,992.71
2017-03-18T05:45:35.624Z,992.73
2017-03-18T05:46:16.194Z,992.69
2017-03-18T05:46:56.753Z,992.75
2017-03-18T05:47:37.361Z,992.65
2017-03-18T05:48:17.952Z,992.67
2017-03-18T05:48:58.562Z,992.68
2017-03-18T05:49:39.153Z,992.59
2017-03-18T05:50:19.760Z,992.52
2017-03-18T05:51:00.362Z,992.57
2017-03-18T05:51:40.989Z,992.47
2017-03-18T05:52:21.585Z,992.54
2017-03-18T05:53:02.167Z,992.47
2017-03-18T05:53:42.739Z,992.45
2017-03-18T05:54:23.317Z,992.42
2017-03-18T05:55:04.067Z,992.37
2017-03-18T05:55:44.627Z,992.34
2017-03-18T05:56:25.207Z,992.32
2017-03-18T05:57:05.827Z,992.27
2017-03-18T05:57:46.453Z,992.23
2017-03-18T05:58:27.052Z,992.23
2017-03-18T05:59:07.626Z,992.19
2017-03-18T05:59:48.243Z,992.22
2017-03-18T06:00:28.847Z,992.2
2017-03-18T06:01:09.432Z,992.2
2017-03-18T06:01:50.030Z,992.2
2017-03-18T06:02:30.653Z,992.22
2017-03-18T06:03:11.211Z,992.17
2017-03-18T06:03:51.827Z,992.2
2017-03-18T06:04:32.404Z,992.18
2017-03-18T06:05:13.207Z,992.18
2017-03-18T06:05:53.795Z,992.14
2017-03-18T06:06:34.374Z,992.21
2017-03-18T06:07:14.958Z,992.15
2017-03-18T06:07:55.550Z,992.17
2017-03-18T06:08:36.130Z,992.13
2017-03-18T06:09:16.732Z,992.22
2017-03-18T06:09:57.326Z,992.1
2017-03-18T06:10:37.906Z,992.08
2017-03-18T06:11:18.521Z,992.07
2017-03-18T06:11:59.076Z,992.08
2017-03-18T06:12:39.666Z,992.07
2017-03-18T06:13:20.245Z,992.02
2017-03-18T06:14:00.811Z,992.01
2017-03-18T06:14:41.391Z,992.06
2017-03-18T06:15:21.959Z,992.12
2017-03-18T06:16:02.530Z,992.09
2017-03-18T06:16:43.157Z,992.1
2017-03-18T06:17:23.816Z,992.03
2017-03-18T06:18:04.445Z,992.06
2017-03-18T06:18:45.011Z,992.03
2017-03-18T06:19:25.613Z,991.99
2017-03-18T06:20:06.197Z,991.96
2017-03-18T06:20:46.792Z,991.96
2017-03-18T06:21:28.234Z,991.97
2017-03-18T06:22:08.816Z,991.96
2017-03-18T06:22:49.386Z,991.9
2017-03-18T06:23:29.981Z,991.88
2017-03-18T06:24:10.597Z,991.82
2017-03-18T06:24:51.164Z,991.77
2017-03-18T06:25:31.742Z,991.74
2017-03-18T06:26:12.380Z,991.74
2017-03-18T06:26:52.978Z,991.72
2017-03-18T06:27:33.550Z,991.67
2017-03-18T06:28:14.124Z,991.62
2017-03-18T06:28:54.728Z,991.62
2017-03-18T06:29:35.357Z,991.57
2017-03-18T06:30:15.957Z,991.57
2017-03-18T06:30:56.534Z,991.62
2017-03-18T06:31:37.117Z,991.54
2017-03-18T06:32:17.749Z,991.53
2017-03-18T06:32:58.420Z,991.49
2017-03-18T06:33:39.006Z,991.5
2017-03-18T06:34:19.596Z,991.52
2017-03-18T06:35:00.214Z,991.5
2017-03-18T06:35:40.978Z,991.53
2017-03-18T06:36:21.813Z,991.57
2017-03-18T06:37:02.787Z,991.51
2017-03-18T06:37:43.353Z,991.49
2017-03-18T06:38:23.931Z,991.47
2017-03-18T06:39:04.527Z,991.41
2017-03-18T06:39:45.089Z,991.36
2017-03-18T06:40:25.748Z,991.36
2017-03-18T06:41:06.338Z,991.35
2017-03-18T06:41:46.926Z,991.36
2017-03-18T06:42:27.625Z,991.36
2017-03-18T06:43:08.224Z,991.37
2017-03-18T06:43:48.866Z,991.33
2017-03-18T06:44:29.448Z,991.18
2017-03-18T06:45:10.055Z,991.08
2017-03-18T06:45:50.618Z,991.14
2017-03-18T06:46:31.253Z,991.14
2017-03-18T06:47:11.870Z,991.12
2017-03-18T06:47:52.457Z,991.18
2017-03-18T06:48:33.058Z,991.26
2017-03-18T06:49:13.847Z,991.34
2017-03-18T06:49:54.412Z,991.39
2017-03-18T06:50:34.986Z,991.21
2017-03-18T06:51:15.535Z,991.12
2017-03-18T06:51:56.225Z,991.04
2017-03-18T06:52:36.840Z,991.04
2017-03-18T06:53:17.409Z,991.03
2017-03-18T06:53:58.042Z,991.08
2017-03-18T06:54:38.647Z,991.05
2017-03-18T06:55:19.312Z,990.9
2017-03-18T06:55:59.839Z,990.87
2017-03-18T06:56:40.417Z,990.89
2017-03-18T06:57:21.078Z,990.89
2017-03-18T06:58:01.649Z,990.73
2017-03-18T06:58:42.264Z,990.7
2017-03-18T06:59:22.854Z,990.62
2017-03-18T07:00:03.429Z,990.62
2017-03-18T07:00:44.022Z,990.6
2017-03-18T07:01:24.677Z,990.63
2017-03-18T07:02:05.235Z,990.7
2017-03-18T07:02:45.827Z,990.68
2017-03-18T07:03:26.428Z,990.72
2017-03-18T07:04:07.013Z,990.69
2017-03-18T07:04:47.598Z,990.72
2017-03-18T07:05:28.197Z,990.72
2017-03-18T07:06:08.805Z,990.7
2017-03-18T07:06:49.466Z,990.68
2017-03-18T07:07:30.031Z,990.67
2017-03-18T07:08:10.609Z,990.7
2017-03-18T07:08:51.217Z,990.58
2017-03-18T07:09:31.798Z,990.59
2017-03-18T07:10:12.391Z,990.5
2017-03-18T07:10:53.016Z,990.51
2017-03-18T07:11:33.591Z,990.46
2017-03-18T07:12:14.208Z,990.51
2017-03-18T07:12:54.853Z,990.47
2017-03-18T07:13:35.455Z,990.44
2017-03-18T07:14:16.066Z,990.42
2017-03-18T07:14:56.674Z,990.38
2017-03-18T07:15:37.480Z,990.36
2017-03-18T07:16:18.062Z,990.4
2017-03-18T07:16:58.680Z,990.42
2017-03-18T07:17:39.261Z,990.49
2017-03-18T07:18:19.883Z,990.52
2017-03-18T07:19:00.494Z,990.44
2017-03-18T07:19:41.079Z,990.43
2017-03-18T07:20:21.659Z,990.37
2017-03-18T07:21:02.298Z,990.4
2017-03-18T07:21:42.917Z,990.32
2017-03-18T07:22:23.537Z,990.34
2017-03-18T07:23:04.171Z,990.28
2017-03-18T07:23:44.835Z,990.27
2017-03-18T07:24:25.449Z,990.3
2017-03-18T07:25:06.224Z,990.34
2017-03-18T07:25:46.872Z,990.35
2017-03-18T07:26:27.460Z,990.31
2017-03-18T07:27:08.064Z,990.26
2017-03-18T07:27:49.024Z,990.28
2017-03-18T07:28:29.636Z,990.26
2017-03-18T07:29:10.312Z,990.29
2017-03-18T07:29:51.000Z,990.27
2017-03-18T07:30:31.657Z,990.21
2017-03-18T07:31:12.280Z,990.13
2017-03-18T07:31:52.877Z,990.11
2017-03-18T07:32:33.521Z,990.14
2017-03-18T07:33:14.192Z,990.06
2017-03-18T07:33:55.108Z,990.11
2017-03-18T07:34:36.236Z,990.03
2017-03-18T07:35:16.934Z,990.12
2017-03-18T07:35:58.550Z,990.11
2017-03-18T07:36:39.235Z,990.03
2017-03-18T07:37:20.037Z,989.97
2017-03-18T07:38:02.405Z,990.03
2017-03-18T07:38:43.052Z,989.95
2017-03-18T07:39:23.704Z,989.89
2017-03-18T07:40:04.344Z,989.93
2017-03-18T07:40:44.903Z,989.88
2017-03-18T07:41:25.521Z,989.87
2017-03-18T07:42:06.086Z,989.89
2017-03-18T07:42:46.700Z,989.86
2017-03-18T07:43:27.298Z,989.84
2017-03-18T07:44:07.888Z,989.78
2017-03-18T07:44:48.492Z,989.83
2017-03-18T07:45:29.077Z,989.85
2017-03-18T07:46:09.662Z,989.8
2017-03-18T07:46:50.304Z,989.82
2017-03-18T07:47:30.876Z,989.84
2017-03-18T07:48:11.491Z,989.76
2017-03-18T07:48:52.103Z,989.77
2017-03-18T07:49:32.675Z,989.69
2017-03-18T07:50:13.287Z,989.78
2017-03-18T07:50:53.900Z,989.74
2017-03-18T07:51:34.470Z,989.68
2017-03-18T07:52:15.030Z,989.64
2017-03-18T07:52:55.619Z,989.63
2017-03-18T07:53:36.246Z,989.59
2017-03-18T07:54:16.834Z,989.57
2017-03-18T07:54:57.394Z,989.63
2017-03-18T07:55:37.973Z,989.68
2017-03-18T07:56:18.597Z,989.56
2017-03-18T07:56:59.176Z,989.5
2017-03-18T07:57:39.786Z,989.53
2017-03-18T07:58:20.387Z,989.53
2017-03-18T07:59:00.954Z,989.49
2017-03-18T07:59:41.526Z,989.46
2017-03-18T08:00:22.120Z,989.49
2017-03-18T08:01:02.723Z,989.49
2017-03-18T08:01:43.338Z,989.56
2017-03-18T08:02:23.945Z,989.52
2017-03-18T08:03:04.555Z,989.51
2017-03-18T08:03:45.273Z,989.5
2017-03-18T08:04:25.795Z,989.48
2017-03-18T08:05:06.426Z,989.37
2017-03-18T08:05:47.047Z,989.48
2017-03-18T08:06:27.615Z,989.44
2017-03-18T08:07:08.221Z,989.36
2017-03-18T08:07:48.785Z,989.37
2017-03-18T08:08:29.377Z,989.22
2017-03-18T08:09:09.954Z,989.2
2017-03-18T08:09:50.549Z,989.3
2017-03-18T08:10:31.165Z,989.4
2017-03-18T08:11:11.777Z,989.33
2017-03-18T08:11:52.358Z,989.39
2017-03-18T08:12:32.967Z,989.34
2017-03-18T08:13:13.550Z,989.34
2017-03-18T08:13:54.166Z,989.34
2017-03-18T08:14:34.792Z,989.29
2017-03-18T08:15:15.368Z,989.29
2017-03-18T08:15:55.937Z,989.3
2017-03-18T08:16:36.526Z,989.33
2017-03-18T08:17:17.126Z,989.24
2017-03-18T08:17:57.724Z,989.24
2017-03-18T08:18:38.311Z,989.26
2017-03-18T08:19:18.994Z,989.21
2017-03-18T08:19:59.604Z,989.28
2017-03-18T08:20:40.184Z,989.16
2017-03-18T08:21:20.784Z,989.16
2017-03-18T08:22:01.386Z,989.09
2017-03-18T08:22:41.987Z,989.25
2017-03-18T08:23:22.574Z,989.17
2017-03-18T08:24:07.154Z,989.25
2017-03-18T08:25:02.867Z,989.11
2017-03-18T08:25:44.435Z,989.06
2017-03-18T08:26:25.018Z,989.08
2017-03-18T08:27:05.606Z,989.14
2017-03-18T08:27:46.207Z,989.27
2017-03-18T08:28:27.959Z,989.15